sensor_id;sensor_type;location;lat;lon;timestamp;pressure;altitude;pressure_sealevel;temperature;humidity
70445;BME280;57902;49.638;11.070;2023-01-04T00:01:25;99497.47;;;4.05;100.00
70445;BME280;57902;49.638;11.070;2023-01-04T00:03:51;99505.81;;;3.96;100.00
70445;BME280;57902;49.638;11.070;2023-01-04T00:06:18;99495.66;;;3.97;100.00
70445;BME280;57902;49.638;11.070;2023-01-04T00:08:45;99495.66;;;3.99;100.00
70445;BME280;57902;49.638;11.070;2023-01-04T00:11:17;99501.53;;;3.93;100.00
70445;BME280;57902;49.638;11.070;2023-01-04T00:13:44;99504.94;;;3.92;100.00
70445;BME280;57902;49.638;11.070;2023-01-04T00:16:13;99504.03;;;3.90;100.00
70445;BME280;57902;49.638;11.070;2023-01-04T00:18:43;99504.81;;;3.88;100.00
70445;BME280;57902;49.638;11.070;2023-01-04T00:21:18;99514.03;;;3.78;100.00
70445;BME280;57902;49.638;11.070;2023-01-04T00:23:46;99505.31;;;3.66;100.00
70445;BME280;57902;49.638;11.070;2023-01-04T00:26:19;99498.38;;;3.59;100.00
70445;BME280;57902;49.638;11.070;2023-01-04T00:28:46;99493.28;;;3.59;100.00
70445;BME280;57902;49.638;11.070;2023-01-04T00:31:19;99499.03;;;3.47;100.00
70445;BME280;57902;49.638;11.070;2023-01-04T00:33:46;99493.94;;;3.49;100.00
70445;BME280;57902;49.638;11.070;2023-01-04T00:36:13;99486.31;;;3.49;100.00
70445;BME280;57902;49.638;11.070;2023-01-04T00:38:40;99490.59;;;3.50;100.00
70445;BME280;57902;49.638;11.070;2023-01-04T00:41:08;99483.72;;;3.47;100.00
70445;BME280;57902;49.638;11.070;2023-01-04T00:43:53;99476.06;;;3.46;100.00
70445;BME280;57902;49.638;11.070;2023-01-04T00:46:20;99469.25;;;3.46;100.00
70445;BME280;57902;49.638;11.070;2023-01-04T00:48:47;99465.81;;;3.43;100.00
70445;BME280;57902;49.638;11.070;2023-01-04T00:51:14;99465.81;;;3.43;100.00
70445;BME280;57902;49.638;11.070;2023-01-04T00:53:40;99454.88;;;3.50;100.00
70445;BME280;57902;49.638;11.070;2023-01-04T00:56:07;99455.56;;;3.40;100.00
70445;BME280;57902;49.638;11.070;2023-01-04T00:58:33;99456.31;;;3.34;100.00
70445;BME280;57902;49.638;11.070;2023-01-04T01:01:06;99462.16;;;3.30;100.00
70445;BME280;57902;49.638;11.070;2023-01-04T01:03:33;99458.81;;;3.32;100.00
70445;BME280;57902;49.638;11.070;2023-01-04T01:06:06;99455.31;;;3.27;100.00
70445;BME280;57902;49.638;11.070;2023-01-04T01:08:33;99451.94;;;3.28;100.00
70445;BME280;57902;49.638;11.070;2023-01-04T01:11:07;99446.00;;;3.28;100.00
70445;BME280;57902;49.638;11.070;2023-01-04T01:13:35;99447.81;;;3.33;100.00
70445;BME280;57902;49.638;11.070;2023-01-04T01:16:08;99452.72;;;3.24;100.00
70445;BME280;57902;49.638;11.070;2023-01-04T01:18:36;99452.66;;;3.21;100.00
70445;BME280;57902;49.638;11.070;2023-01-04T01:21:08;99461.78;;;3.08;100.00
70445;BME280;57902;49.638;11.070;2023-01-04T01:23:34;99465.13;;;3.06;100.00
70445;BME280;57902;49.638;11.070;2023-01-04T01:26:02;99470.97;;;3.02;100.00
70445;BME280;57902;49.638;11.070;2023-01-04T01:28:29;99463.22;;;2.95;100.00
70445;BME280;57902;49.638;11.070;2023-01-04T01:30:56;99462.34;;;2.95;100.00
70445;BME280;57902;49.638;11.070;2023-01-04T01:33:32;99459.66;;;2.87;100.00
70445;BME280;57902;49.638;11.070;2023-01-04T01:35:59;99457.81;;;2.82;100.00
70445;BME280;57902;49.638;11.070;2023-01-04T01:38:27;99457.00;;;2.83;100.00
70445;BME280;57902;49.638;11.070;2023-01-04T01:40:53;99459.63;;;2.86;100.00
70445;BME280;57902;49.638;11.070;2023-01-04T01:43:23;99455.22;;;2.78;100.00
70445;BME280;57902;49.638;11.070;2023-01-04T01:46:08;99457.06;;;2.86;100.00
70445;BME280;57902;49.638;11.070;2023-01-04T01:48:36;99449.34;;;2.81;100.00
70445;BME280;57902;49.638;11.070;2023-01-04T01:51:03;99452.97;;;2.92;100.00
70445;BME280;57902;49.638;11.070;2023-01-04T01:53:33;99451.84;;;2.79;100.00
70445;BME280;57902;49.638;11.070;2023-01-04T01:56:02;99453.63;;;2.82;100.00
70445;BME280;57902;49.638;11.070;2023-01-04T01:58:33;99451.84;;;2.79;100.00
70445;BME280;57902;49.638;11.070;2023-01-04T02:01:02;99448.59;;;2.87;100.00
70445;BME280;57902;49.638;11.070;2023-01-04T02:03:34;99435.91;;;2.88;100.00
70445;BME280;57902;49.638;11.070;2023-01-04T02:06:03;99430.72;;;2.84;100.00
70445;BME280;57902;49.638;11.070;2023-01-04T02:08:30;99428.16;;;2.82;100.00
70445;BME280;57902;49.638;11.070;2023-01-04T02:10:57;99420.50;;;2.82;100.00
70445;BME280;57902;49.638;11.070;2023-01-04T02:13:26;99432.38;;;2.83;100.00
70445;BME280;57902;49.638;11.070;2023-01-04T02:16:26;99429.91;;;2.86;100.00
70445;BME280;57902;49.638;11.070;2023-01-04T02:19:05;99435.13;;;2.91;100.00
70445;BME280;57902;49.638;11.070;2023-01-04T02:33:26;99420.69;;;2.91;100.00
70445;BME280;57902;49.638;11.070;2023-01-04T02:39:04;99415.47;;;2.85;100.00
70445;BME280;57902;49.638;11.070;2023-01-04T02:44:49;99421.31;;;2.81;100.00
70445;BME280;57902;49.638;11.070;2023-01-04T02:47:26;99421.31;;;2.81;100.00
70445;BME280;57902;49.638;11.070;2023-01-04T02:53:04;99429.72;;;2.77;100.00
70445;BME280;57902;49.638;11.070;2023-01-04T02:56:12;99426.22;;;2.70;100.00
70445;BME280;57902;49.638;11.070;2023-01-04T03:01:50;99419.34;;;2.66;100.00
70445;BME280;57902;49.638;11.070;2023-01-04T03:04:47;99409.75;;;2.54;100.00
70445;BME280;57902;49.638;11.070;2023-01-04T03:07:42;99403.69;;;2.49;100.00
70445;BME280;57902;49.638;11.070;2023-01-04T03:10:19;99404.78;;;2.60;100.00
70445;BME280;57902;49.638;11.070;2023-01-04T03:12:53;99399.72;;;2.62;100.00
70445;BME280;57902;49.638;11.070;2023-01-04T03:15:28;99395.44;;;2.59;100.00
70445;BME280;57902;49.638;11.070;2023-01-04T03:17:59;99400.53;;;2.59;100.00
70445;BME280;57902;49.638;11.070;2023-01-04T03:20:30;99397.06;;;2.56;100.00
70445;BME280;57902;49.638;11.070;2023-01-04T03:23:05;99398.78;;;2.58;100.00
70445;BME280;57902;49.638;11.070;2023-01-04T03:25:58;99391.09;;;2.55;100.00
70445;BME280;57902;49.638;11.070;2023-01-04T03:28:48;99382.53;;;2.50;100.00
70445;BME280;57902;49.638;11.070;2023-01-04T03:31:41;99385.94;;;2.52;100.00
70445;BME280;57902;49.638;11.070;2023-01-04T03:34:28;99379.94;;;2.49;100.00
70445;BME280;57902;49.638;11.070;2023-01-04T03:37:22;99386.75;;;2.50;100.00
70445;BME280;57902;49.638;11.070;2023-01-04T03:40:27;99382.47;;;2.47;100.00
70445;BME280;57902;49.638;11.070;2023-01-04T03:43:19;99368.78;;;2.43;100.00
70445;BME280;57902;49.638;11.070;2023-01-04T03:49:54;99364.31;;;2.32;100.00
70445;BME280;57902;49.638;11.070;2023-01-04T03:52:25;99361.75;;;2.32;100.00
70445;BME280;57902;49.638;11.070;2023-01-04T03:54:55;99349.06;;;2.33;100.00
70445;BME280;57902;49.638;11.070;2023-01-04T03:57:23;99354.88;;;2.27;100.00
70445;BME280;57902;49.638;11.070;2023-01-04T04:00:04;99348.16;;;2.30;100.00
70445;BME280;57902;49.638;11.070;2023-01-04T04:02:36;99354.97;;;2.31;100.00
70445;BME280;57902;49.638;11.070;2023-01-04T04:05:03;99349.78;;;2.26;100.00
70445;BME280;57902;49.638;11.070;2023-01-04T04:07:48;99355.84;;;2.31;100.00
70445;BME280;57902;49.638;11.070;2023-01-04T04:10:34;99347.47;;;2.37;100.00
70445;BME280;57902;49.638;11.070;2023-01-04T04:13:00;99340.66;;;2.36;100.00
70445;BME280;57902;49.638;11.070;2023-01-04T04:15:27;99338.09;;;2.36;100.00
70445;BME280;57902;49.638;11.070;2023-01-04T04:17:54;99340.63;;;2.34;100.00
70445;BME280;57902;49.638;11.070;2023-01-04T04:20:20;99338.00;;;2.30;100.00
70445;BME280;57902;49.638;11.070;2023-01-04T04:22:47;99332.09;;;2.31;100.00
70445;BME280;57902;49.638;11.070;2023-01-04T04:25:13;99335.38;;;2.26;100.00
70445;BME280;57902;49.638;11.070;2023-01-04T04:27:40;99332.19;;;2.37;100.00
70445;BME280;57902;49.638;11.070;2023-01-04T04:30:07;99332.34;;;2.44;100.00
70445;BME280;57902;49.638;11.070;2023-01-04T04:32:33;99326.47;;;2.47;100.00
70445;BME280;57902;49.638;11.070;2023-01-04T04:35:00;99327.25;;;2.44;100.00
70445;BME280;57902;49.638;11.070;2023-01-04T04:37:26;99320.47;;;2.45;100.00
70445;BME280;57902;49.638;11.070;2023-01-04T04:39:56;99326.50;;;2.49;100.00
70445;BME280;57902;49.638;11.070;2023-01-04T04:42:23;99330.78;;;2.50;100.00
70445;BME280;57902;49.638;11.070;2023-01-04T04:44:49;99323.22;;;2.54;100.00
70445;BME280;57902;49.638;11.070;2023-01-04T04:47:16;99308.06;;;2.60;100.00
70445;BME280;57902;49.638;11.070;2023-01-04T04:49:42;99302.91;;;2.57;100.00
70445;BME280;57902;49.638;11.070;2023-01-04T04:52:09;99313.09;;;2.57;100.00
70445;BME280;57902;49.638;11.070;2023-01-04T04:54:35;99315.63;;;2.57;100.00
70445;BME280;57902;49.638;11.070;2023-01-04T04:57:03;99306.38;;;2.62;100.00
70445;BME280;57902;49.638;11.070;2023-01-04T04:59:31;99311.53;;;2.66;100.00
70445;BME280;57902;49.638;11.070;2023-01-04T05:01:57;99303.00;;;2.62;100.00
70445;BME280;57902;49.638;11.070;2023-01-04T05:04:24;99298.72;;;2.61;100.00
70445;BME280;57902;49.638;11.070;2023-01-04T05:06:50;99294.50;;;2.61;100.00
70445;BME280;57902;49.638;11.070;2023-01-04T05:09:18;99296.25;;;2.66;100.00
70445;BME280;57902;49.638;11.070;2023-01-04T05:11:44;99295.47;;;2.68;100.00
70445;BME280;57902;49.638;11.070;2023-01-04T05:14:29;99303.13;;;2.70;100.00
70445;BME280;57902;49.638;11.070;2023-01-04T05:16:56;99302.31;;;2.71;100.00
70445;BME280;57902;49.638;11.070;2023-01-04T05:19:22;99308.22;;;2.70;100.00
70445;BME280;57902;49.638;11.070;2023-01-04T05:21:49;99313.34;;;2.71;100.00
70445;BME280;57902;49.638;11.070;2023-01-04T05:24:15;99322.72;;;2.74;100.00
70445;BME280;57902;49.638;11.070;2023-01-04T05:26:42;99321.13;;;2.79;100.00
70445;BME280;57902;49.638;11.070;2023-01-04T05:29:08;99317.63;;;2.74;100.00
70445;BME280;57902;49.638;11.070;2023-01-04T05:31:54;99318.50;;;2.76;100.00
70445;BME280;57902;49.638;11.070;2023-01-04T05:34:21;99308.47;;;2.82;100.00
70445;BME280;57902;49.638;11.070;2023-01-04T05:36:47;99307.56;;;2.80;100.00
70445;BME280;57902;49.638;11.070;2023-01-04T05:39:14;99301.50;;;2.72;100.00
70445;BME280;57902;49.638;11.070;2023-01-04T05:41:40;99309.16;;;2.73;100.00
70445;BME280;57902;49.638;11.070;2023-01-04T05:44:39;99299.81;;;2.74;100.00
70445;BME280;57902;49.638;11.070;2023-01-04T05:47:05;99307.56;;;2.80;100.00
70445;BME280;57902;49.638;11.070;2023-01-04T05:49:40;99295.69;;;2.80;100.00
70445;BME280;57902;49.638;11.070;2023-01-04T05:52:06;99281.34;;;2.86;100.00
70445;BME280;57902;49.638;11.070;2023-01-04T05:54:32;99286.44;;;2.86;100.00
70445;BME280;57902;49.638;11.070;2023-01-04T05:56:59;99292.47;;;2.89;100.00
70445;BME280;57902;49.638;11.070;2023-01-04T05:59:25;99279.88;;;2.98;100.00
70445;BME280;57902;49.638;11.070;2023-01-04T06:01:52;99273.09;;;3.01;100.00
70445;BME280;57902;49.638;11.070;2023-01-04T06:04:18;99279.88;;;2.98;100.00
70445;BME280;57902;49.638;11.070;2023-01-04T06:06:45;99279.94;;;3.02;100.00
70445;BME280;57902;49.638;11.070;2023-01-04T06:09:12;99266.38;;;3.03;100.00
70445;BME280;57902;49.638;11.070;2023-01-04T06:11:38;99262.84;;;2.96;100.00
70445;BME280;57902;49.638;11.070;2023-01-04T06:14:05;99269.63;;;2.95;100.00
70445;BME280;57902;49.638;11.070;2023-01-04T06:16:31;99270.53;;;2.99;100.00
70445;BME280;57902;49.638;11.070;2023-01-04T06:18:59;99251.84;;;2.97;100.00
70445;BME280;57902;49.638;11.070;2023-01-04T06:21:25;99250.22;;;3.04;100.00
70445;BME280;57902;49.638;11.070;2023-01-04T06:23:52;99246.91;;;3.08;100.00
70445;BME280;57902;49.638;11.070;2023-01-04T06:26:19;99246.09;;;3.09;100.00
70445;BME280;57902;49.638;11.070;2023-01-04T06:28:46;99242.72;;;3.10;100.00
70445;BME280;57902;49.638;11.070;2023-01-04T06:31:13;99231.69;;;3.12;100.00
70445;BME280;57902;49.638;11.070;2023-01-04T06:33:39;99230.84;;;3.12;100.00
70445;BME280;57902;49.638;11.070;2023-01-04T06:36:06;99230.06;;;3.16;100.00
70445;BME280;57902;49.638;11.070;2023-01-04T06:38:45;99228.28;;;3.10;100.00
70445;BME280;57902;49.638;11.070;2023-01-04T06:41:11;99224.03;;;3.12;100.00
70445;BME280;57902;49.638;11.070;2023-01-04T06:43:37;99231.00;;;3.23;100.00
70445;BME280;57902;49.638;11.070;2023-01-04T06:46:04;99215.75;;;3.26;100.00
70445;BME280;57902;49.638;11.070;2023-01-04T06:48:30;99213.19;;;3.26;100.00
70445;BME280;57902;49.638;11.070;2023-01-04T06:50:57;99213.22;;;3.27;100.00
70445;BME280;57902;49.638;11.070;2023-01-04T06:53:23;99202.28;;;3.35;100.00
70445;BME280;57902;49.638;11.070;2023-01-04T06:55:50;99208.28;;;3.37;100.00
70445;BME280;57902;49.638;11.070;2023-01-04T06:58:16;99212.56;;;3.39;100.00
70445;BME280;57902;49.638;11.070;2023-01-04T07:00:43;99212.66;;;3.45;100.00
70445;BME280;57902;49.638;11.070;2023-01-04T07:03:09;99211.81;;;3.48;100.00
70445;BME280;57902;49.638;11.070;2023-01-04T07:05:41;99217.84;;;3.53;100.00
70445;BME280;57902;49.638;11.070;2023-01-04T07:08:07;99203.41;;;3.54;100.00
70445;BME280;57902;49.638;11.070;2023-01-04T07:10:34;99208.59;;;3.58;100.00
70445;BME280;57902;49.638;11.070;2023-01-04T07:13:01;99206.06;;;3.61;100.00
70445;BME280;57902;49.638;11.070;2023-01-04T07:15:27;99195.06;;;3.65;100.00
70445;BME280;57902;49.638;11.070;2023-01-04T07:18:06;99183.16;;;3.64;100.00
70445;BME280;57902;49.638;11.070;2023-01-04T07:20:33;99182.31;;;3.67;100.00
70445;BME280;57902;49.638;11.070;2023-01-04T07:22:59;99183.22;;;3.69;100.00
70445;BME280;57902;49.638;11.070;2023-01-04T07:25:26;99191.03;;;3.83;100.00
70445;BME280;57902;49.638;11.070;2023-01-04T07:27:53;99185.97;;;3.88;100.00
70445;BME280;57902;49.638;11.070;2023-01-04T07:30:21;99187.72;;;3.90;100.00
70445;BME280;57902;49.638;11.070;2023-01-04T07:32:50;99169.06;;;3.96;100.00
70445;BME280;57902;49.638;11.070;2023-01-04T07:35:17;99176.69;;;3.93;100.00
70445;BME280;57902;49.638;11.070;2023-01-04T07:37:43;99170.81;;;3.98;100.00
70445;BME280;57902;49.638;11.070;2023-01-04T07:40:10;99163.13;;;3.95;100.00
70445;BME280;57902;49.638;11.070;2023-01-04T07:42:36;99167.38;;;3.96;100.00
70445;BME280;57902;49.638;11.070;2023-01-04T07:45:04;99180.09;;;3.95;100.00
70445;BME280;57902;49.638;11.070;2023-01-04T07:47:31;99167.44;;;3.99;100.00
70445;BME280;57902;49.638;11.070;2023-01-04T07:50:02;99169.25;;;4.11;100.00
70445;BME280;57902;49.638;11.070;2023-01-04T07:52:29;99174.34;;;4.11;100.00
70445;BME280;57902;49.638;11.070;2023-01-04T07:54:55;99157.28;;;4.07;100.00
70445;BME280;57902;49.638;11.070;2023-01-04T07:57:21;99157.28;;;4.06;100.00
70445;BME280;57902;49.638;11.070;2023-01-04T07:59:48;99165.00;;;4.12;100.00
70445;BME280;57902;49.638;11.070;2023-01-04T08:02:15;99161.59;;;4.13;100.00
70445;BME280;57902;49.638;11.070;2023-01-04T08:04:41;99152.25;;;4.15;100.00
70445;BME280;57902;49.638;11.070;2023-01-04T08:07:09;99152.31;;;4.21;100.00
70445;BME280;57902;49.638;11.070;2023-01-04T08:09:38;99139.56;;;4.23;100.00
70445;BME280;57902;49.638;11.070;2023-01-04T08:12:06;99148.16;;;4.29;100.00
70445;BME280;57902;49.638;11.070;2023-01-04T08:14:33;99141.34;;;4.30;100.00
70445;BME280;57902;49.638;11.070;2023-01-04T08:16:59;99139.66;;;4.29;100.00
70445;BME280;57902;49.638;11.070;2023-01-04T08:19:25;99133.63;;;4.24;100.00
70445;BME280;57902;49.638;11.070;2023-01-04T08:21:52;99132.81;;;4.28;100.00
70445;BME280;57902;49.638;11.070;2023-01-04T08:24:25;99138.84;;;4.34;100.00
70445;BME280;57902;49.638;11.070;2023-01-04T08:26:52;99130.31;;;4.31;100.00
70445;BME280;57902;49.638;11.070;2023-01-04T08:29:19;99134.63;;;4.38;100.00
70445;BME280;57902;49.638;11.070;2023-01-04T08:31:45;99126.09;;;4.36;100.00
70445;BME280;57902;49.638;11.070;2023-01-04T08:34:12;99121.03;;;4.39;100.00
70445;BME280;57902;49.638;11.070;2023-01-04T08:36:49;99107.34;;;4.34;100.00
70445;BME280;57902;49.638;11.070;2023-01-04T08:39:16;99103.13;;;4.37;100.00
70445;BME280;57902;49.638;11.070;2023-01-04T08:41:44;99097.19;;;4.38;100.00
70445;BME280;57902;49.638;11.070;2023-01-04T08:44:32;99077.66;;;4.44;100.00
70445;BME280;57902;49.638;11.070;2023-01-04T08:47:00;99076.88;;;4.49;100.00
70445;BME280;57902;49.638;11.070;2023-01-04T08:49:29;99071.75;;;4.51;100.00
70445;BME280;57902;49.638;11.070;2023-01-04T08:51:55;99071.78;;;4.55;100.00
70445;BME280;57902;49.638;11.070;2023-01-04T08:54:22;99076.03;;;4.55;100.00
70445;BME280;57902;49.638;11.070;2023-01-04T08:56:48;99067.53;;;4.58;100.00
70445;BME280;57902;49.638;11.070;2023-01-04T08:59:16;99077.81;;;4.65;100.00
70445;BME280;57902;49.638;11.070;2023-01-04T09:01:43;99076.16;;;4.72;100.00
70445;BME280;57902;49.638;11.070;2023-01-04T09:04:11;99069.34;;;4.76;100.00
70445;BME280;57902;49.638;11.070;2023-01-04T09:06:37;99072.78;;;4.78;100.00
70445;BME280;57902;49.638;11.070;2023-01-04T09:09:04;99080.47;;;4.79;100.00
70445;BME280;57902;49.638;11.070;2023-01-04T09:11:31;99071.16;;;4.89;100.00
70445;BME280;57902;49.638;11.070;2023-01-04T09:13:59;99075.41;;;4.88;100.00
70445;BME280;57902;49.638;11.070;2023-01-04T09:16:33;99082.25;;;4.91;100.00
70445;BME280;57902;49.638;11.070;2023-01-04T09:18:59;99078.00;;;4.96;100.00
70445;BME280;57902;49.638;11.070;2023-01-04T09:21:26;99080.63;;;5.02;100.00
70445;BME280;57902;49.638;11.070;2023-01-04T09:23:53;99078.91;;;5.06;100.00
70445;BME280;57902;49.638;11.070;2023-01-04T09:26:21;99079.81;;;5.10;100.00
70445;BME280;57902;49.638;11.070;2023-01-04T09:28:49;99078.94;;;5.15;100.00
70445;BME280;57902;49.638;11.070;2023-01-04T09:31:19;99079.88;;;5.25;100.00
70445;BME280;57902;49.638;11.070;2023-01-04T09:33:47;99069.66;;;5.28;100.00
70445;BME280;57902;49.638;11.070;2023-01-04T09:36:33;99067.09;;;5.33;100.00
70445;BME280;57902;49.638;11.070;2023-01-04T09:39:00;99062.88;;;5.38;100.00
70445;BME280;57902;49.638;11.070;2023-01-04T09:41:33;99060.31;;;5.39;100.00
70445;BME280;57902;49.638;11.070;2023-01-04T09:44:03;99070.56;;;5.49;100.00
70445;BME280;57902;49.638;11.070;2023-01-04T09:47:00;99081.69;;;5.55;100.00
70445;BME280;57902;49.638;11.070;2023-01-04T09:49:36;99075.75;;;5.59;100.00
70445;BME280;57902;49.638;11.070;2023-01-04T09:52:11;99073.19;;;5.63;100.00
70445;BME280;57902;49.638;11.070;2023-01-04T09:54:43;99072.31;;;5.64;100.00
70445;BME280;57902;49.638;11.070;2023-01-04T10:02:57;99061.31;;;5.78;100.00
70445;BME280;57902;49.638;11.070;2023-01-04T10:05:26;99057.88;;;5.81;100.00
70445;BME280;57902;49.638;11.070;2023-01-04T10:07:53;99060.47;;;5.90;100.00
70445;BME280;57902;49.638;11.070;2023-01-04T10:10:35;99057.91;;;5.95;100.00
70445;BME280;57902;49.638;11.070;2023-01-04T10:13:19;99059.59;;;5.96;100.00
70445;BME280;57902;49.638;11.070;2023-01-04T10:16:14;99052.00;;;5.99;100.00
70445;BME280;57902;49.638;11.070;2023-01-04T10:19:28;99048.56;;;6.02;100.00
70445;BME280;57902;49.638;11.070;2023-01-04T10:22:29;99041.75;;;6.05;100.00
70445;BME280;57902;49.638;11.070;2023-01-04T10:25:19;99041.75;;;6.05;99.33
70445;BME280;57902;49.638;11.070;2023-01-04T10:33:11;99020.44;;;6.16;98.09
70445;BME280;57902;49.638;11.070;2023-01-04T10:35:41;99015.31;;;6.22;97.08
70445;BME280;57902;49.638;11.070;2023-01-04T10:38:23;99011.03;;;6.21;96.98
70445;BME280;57902;49.638;11.070;2023-01-04T10:40:51;99002.50;;;6.23;97.23
70445;BME280;57902;49.638;11.070;2023-01-04T10:46:29;98997.38;;;6.29;95.45
70445;BME280;57902;49.638;11.070;2023-01-04T10:49:47;98997.34;;;6.34;95.79
70445;BME280;57902;49.638;11.070;2023-01-04T10:52:10;98990.53;;;6.39;95.62
70445;BME280;57902;49.638;11.070;2023-01-04T10:54:43;98985.41;;;6.45;94.82
70445;BME280;57902;49.638;11.070;2023-01-04T10:57:20;98982.84;;;6.44;95.27
70445;BME280;57902;49.638;11.070;2023-01-04T11:00:00;98987.97;;;6.42;94.73
70445;BME280;57902;49.638;11.070;2023-01-04T11:02:39;98972.59;;;6.42;94.90
70445;BME280;57902;49.638;11.070;2023-01-04T11:05:21;98974.31;;;6.50;95.04
70445;BME280;57902;49.638;11.070;2023-01-04T11:07:55;98970.03;;;6.50;94.21
70445;BME280;57902;49.638;11.070;2023-01-04T11:10:29;98965.75;;;6.54;93.77
70445;BME280;57902;49.638;11.070;2023-01-04T11:12:57;98966.59;;;6.53;93.58
70445;BME280;57902;49.638;11.070;2023-01-04T11:15:23;98960.63;;;6.57;94.05
70445;BME280;57902;49.638;11.070;2023-01-04T11:17:50;98957.19;;;6.55;94.32
70445;BME280;57902;49.638;11.070;2023-01-04T11:20:17;98957.19;;;6.67;92.82
70445;BME280;57902;49.638;11.070;2023-01-04T11:23:00;98958.91;;;6.68;93.48
70445;BME280;57902;49.638;11.070;2023-01-04T11:25:34;98957.19;;;6.67;93.85
70445;BME280;57902;49.638;11.070;2023-01-04T11:28:40;98946.94;;;6.65;94.53
70445;BME280;57902;49.638;11.070;2023-01-04T11:31:21;98949.50;;;6.64;94.43
70445;BME280;57902;49.638;11.070;2023-01-04T11:33:58;98937.50;;;6.72;94.14
70445;BME280;57902;49.638;11.070;2023-01-04T11:38:54;98933.22;;;6.77;93.53
70445;BME280;57902;49.638;11.070;2023-01-04T11:41:21;98940.88;;;6.85;92.91
70445;BME280;57902;49.638;11.070;2023-01-04T11:46:28;98934.03;;;6.89;92.36
70445;BME280;57902;49.638;11.070;2023-01-04T11:48:55;98932.28;;;6.94;92.02
70445;BME280;57902;49.638;11.070;2023-01-04T11:54:00;98918.56;;;7.07;91.48
70445;BME280;57902;49.638;11.070;2023-01-04T11:56:35;98910.03;;;7.07;91.24
70445;BME280;57902;49.638;11.070;2023-01-04T11:59:10;98904.03;;;7.09;91.44
70445;BME280;57902;49.638;11.070;2023-01-04T12:01:45;98897.16;;;7.16;91.01
70445;BME280;57902;49.638;11.070;2023-01-04T12:04:17;98895.47;;;7.16;90.50
70445;BME280;57902;49.638;11.070;2023-01-04T12:06:58;98886.84;;;7.21;90.44
70445;BME280;57902;49.638;11.070;2023-01-04T12:09:25;98877.44;;;7.24;90.21
70445;BME280;57902;49.638;11.070;2023-01-04T12:11:54;98870.53;;;7.31;89.85
70445;BME280;57902;49.638;11.070;2023-01-04T12:14:23;98868.88;;;7.30;89.60
70445;BME280;57902;49.638;11.070;2023-01-04T12:19:42;98867.06;;;7.38;88.79
70445;BME280;57902;49.638;11.070;2023-01-04T12:24:52;98854.22;;;7.47;88.44
70445;BME280;57902;49.638;11.070;2023-01-04T12:27:26;98858.44;;;7.50;89.16
70445;BME280;57902;49.638;11.070;2023-01-04T12:30:04;98863.59;;;7.48;88.83
70445;BME280;57902;49.638;11.070;2023-01-04T12:34:57;98855.94;;;7.44;89.79
70445;BME280;57902;49.638;11.070;2023-01-04T12:45:44;98850.72;;;7.51;89.80
70445;BME280;57902;49.638;11.070;2023-01-04T12:54:02;98838.69;;;7.60;90.34
70445;BME280;57902;49.638;11.070;2023-01-04T12:57:09;98838.63;;;7.66;89.77
70445;BME280;57902;49.638;11.070;2023-01-04T12:59:37;98824.94;;;7.68;89.63
70445;BME280;57902;49.638;11.070;2023-01-04T13:02:13;98810.38;;;7.69;90.09
70445;BME280;57902;49.638;11.070;2023-01-04T13:04:40;98803.31;;;7.91;88.90
70445;BME280;57902;49.638;11.070;2023-01-04T13:07:16;98802.34;;;8.03;88.80
70445;BME280;57902;49.638;11.070;2023-01-04T13:09:49;98806.69;;;7.96;89.95
70445;BME280;57902;49.638;11.070;2023-01-04T13:15:05;98805.81;;;8.00;90.92
70445;BME280;57902;49.638;11.070;2023-01-04T13:17:38;98798.03;;;8.06;90.92
70445;BME280;57902;49.638;11.070;2023-01-04T13:20:13;98805.63;;;8.16;90.68
70445;BME280;57902;49.638;11.070;2023-01-04T13:22:48;98802.13;;;8.21;90.46
70445;BME280;57902;49.638;11.070;2023-01-04T13:25:17;98804.59;;;8.31;90.58
70445;BME280;57902;49.638;11.070;2023-01-04T13:28:15;98789.94;;;8.39;90.14
70445;BME280;57902;49.638;11.070;2023-01-04T13:30:43;98791.56;;;8.49;89.03
70445;BME280;57902;49.638;11.070;2023-01-04T13:33:16;98795.03;;;8.45;89.33
70445;BME280;57902;49.638;11.070;2023-01-04T13:36:03;98794.16;;;8.48;89.56
70445;BME280;57902;49.638;11.070;2023-01-04T13:38:35;98776.84;;;8.61;88.86
70445;BME280;57902;49.638;11.070;2023-01-04T13:41:17;98774.19;;;8.67;88.59
70445;BME280;57902;49.638;11.070;2023-01-04T13:46:30;98769.94;;;8.64;88.90
70445;BME280;57902;49.638;11.070;2023-01-04T13:49:00;98772.53;;;8.61;90.08
70445;BME280;57902;49.638;11.070;2023-01-04T13:51:29;98769.97;;;8.61;89.82
70445;BME280;57902;49.638;11.070;2023-01-04T13:54:17;98765.72;;;8.58;89.85
70445;BME280;57902;49.638;11.070;2023-01-04T13:56:44;98765.75;;;8.57;89.68
70445;BME280;57902;49.638;11.070;2023-01-04T13:59:20;98775.06;;;8.66;89.32
70445;BME280;57902;49.638;11.070;2023-01-04T14:01:47;98758.72;;;8.70;89.20
70445;BME280;57902;49.638;11.070;2023-01-04T14:04:28;98762.09;;;8.72;89.39
70445;BME280;57902;49.638;11.070;2023-01-04T14:06:58;98768.19;;;8.68;90.03
70445;BME280;57902;49.638;11.070;2023-01-04T14:09:41;98759.63;;;8.66;90.22
70445;BME280;57902;49.638;11.070;2023-01-04T14:12:14;98759.66;;;8.64;90.61
70445;BME280;57902;49.638;11.070;2023-01-04T14:19:59;98762.16;;;8.69;90.58
70445;BME280;57902;49.638;11.070;2023-01-04T14:25:00;98760.44;;;8.71;90.53
70445;BME280;57902;49.638;11.070;2023-01-04T14:27:40;98760.38;;;8.74;91.00
70445;BME280;57902;49.638;11.070;2023-01-04T14:33:00;98752.75;;;8.69;92.29
70445;BME280;57902;49.638;11.070;2023-01-04T14:35:29;98747.66;;;8.66;93.11
70445;BME280;57902;49.638;11.070;2023-01-04T14:38:03;98744.16;;;8.69;93.35
70445;BME280;57902;49.638;11.070;2023-01-04T14:40:38;98752.53;;;8.82;93.08
70445;BME280;57902;49.638;11.070;2023-01-04T14:43:37;98744.06;;;8.75;93.15
70445;BME280;57902;49.638;11.070;2023-01-04T14:46:08;98732.19;;;8.68;94.11